createdAt,value
2019-03-11T00:00:11.635Z,24.02
2019-03-11T00:02:40.199Z,25.10
2019-03-11T00:05:09.155Z,22.87
2019-03-11T00:07:37.834Z,23.75
2019-03-11T00:10:08.165Z,25.10
2019-03-11T00:12:36.764Z,24.85
2019-03-11T00:15:07.632Z,24.02
2019-03-11T00:17:36.101Z,24.25
2019-03-11T00:20:06.385Z,24.30
2019-03-11T00:22:35.086Z,24.25
2019-03-11T00:25:03.707Z,23.92
2019-03-11T00:27:32.247Z,22.80
2019-03-11T00:30:00.741Z,23.07
2019-03-11T00:32:29.307Z,23.45
2019-03-11T00:34:57.881Z,22.07
2019-03-11T00:37:26.435Z,23.62
2019-03-11T00:39:54.964Z,23.32
2019-03-11T00:42:23.637Z,22.77
2019-03-11T00:44:52.238Z,24.55
2019-03-11T00:47:20.779Z,23.92
2019-03-11T00:49:49.267Z,24.23
2019-03-11T00:52:17.823Z,24.05
2019-03-11T00:54:46.347Z,26.77
2019-03-11T00:57:14.882Z,26.15
2019-03-11T00:59:43.563Z,26.93
2019-03-11T01:02:12.105Z,25.77
2019-03-11T01:04:40.730Z,25.40
2019-03-11T01:07:09.401Z,24.72
2019-03-11T01:09:38.139Z,24.50
2019-03-11T01:12:06.760Z,24.82
2019-03-11T01:14:36.039Z,23.75
2019-03-11T01:17:04.641Z,22.30
2019-03-11T01:19:33.237Z,23.07
2019-03-11T01:22:01.803Z,21.25
2019-03-11T01:24:30.349Z,21.73
2019-03-11T01:26:58.960Z,21.68
2019-03-11T01:29:27.556Z,21.75
2019-03-11T01:31:56.056Z,21.95
2019-03-11T01:34:24.587Z,21.73
2019-03-11T01:36:53.184Z,22.75
2019-03-11T01:39:21.778Z,22.00
2019-03-11T01:41:50.245Z,21.57
2019-03-11T01:44:18.936Z,21.90
2019-03-11T01:46:47.556Z,22.85
2019-03-11T01:49:16.193Z,22.40
2019-03-11T01:51:44.870Z,22.32
2019-03-11T01:54:13.512Z,22.85
2019-03-11T01:56:42.182Z,23.20
2019-03-11T01:59:10.812Z,23.45
2019-03-11T02:01:39.272Z,22.58
2019-03-11T02:04:07.868Z,22.37
2019-03-11T02:06:36.395Z,22.93
2019-03-11T02:09:05.661Z,21.85
2019-03-11T02:11:34.130Z,22.48
2019-03-11T02:14:02.684Z,21.35
2019-03-11T02:16:31.392Z,22.25
2019-03-11T02:18:59.989Z,21.10
2019-03-11T02:21:28.556Z,21.68
2019-03-11T02:23:57.171Z,21.57
2019-03-11T02:26:25.828Z,21.02
2019-03-11T02:28:54.357Z,22.55
2019-03-11T02:31:22.815Z,21.70
2019-03-11T02:33:51.429Z,21.48
2019-03-11T02:36:19.971Z,20.32
2019-03-11T02:38:48.601Z,22.10
2019-03-11T02:41:17.216Z,21.00
2019-03-11T02:43:45.768Z,21.40
2019-03-11T02:46:14.318Z,21.50
2019-03-11T02:48:42.963Z,21.50
2019-03-11T02:51:11.502Z,22.90
2019-03-11T02:53:40.029Z,22.82
2019-03-11T02:56:08.579Z,21.60
2019-03-11T02:58:37.201Z,22.10
2019-03-11T03:01:19.677Z,21.85
2019-03-11T03:03:55.931Z,22.80
2019-03-11T03:06:24.566Z,21.48
2019-03-11T03:08:53.235Z,23.02
2019-03-11T03:11:21.740Z,23.18
2019-03-11T03:13:53.332Z,21.57
2019-03-11T03:16:21.950Z,21.68
2019-03-11T03:18:50.557Z,23.18
2019-03-11T03:21:19.227Z,23.18
2019-03-11T03:23:47.957Z,22.85
2019-03-11T03:26:16.581Z,24.18
2019-03-11T03:28:45.299Z,23.60
2019-03-11T03:31:13.861Z,23.22
2019-03-11T03:33:42.395Z,23.12
2019-03-11T03:36:11.030Z,22.40
2019-03-11T03:38:39.548Z,23.05
2019-03-11T03:41:08.333Z,22.80
2019-03-11T03:43:36.928Z,23.30
2019-03-11T03:46:17.769Z,23.38
2019-03-11T03:48:35.990Z,21.68
2019-03-11T03:51:04.664Z,22.15
2019-03-11T03:53:33.203Z,22.55
2019-03-11T03:56:01.823Z,22.20
2019-03-11T03:58:30.445Z,22.52
2019-03-11T04:00:58.939Z,21.93
2019-03-11T04:03:27.545Z,23.00
2019-03-11T04:05:56.150Z,23.12
2019-03-11T04:08:24.810Z,22.05
2019-03-11T04:10:53.269Z,20.62
2019-03-11T04:13:21.844Z,23.00
2019-03-11T04:15:50.461Z,22.85
2019-03-11T04:18:19.067Z,22.37
2019-03-11T04:20:47.697Z,21.30
2019-03-11T04:23:16.212Z,21.27
2019-03-11T04:25:44.832Z,21.52
2019-03-11T04:28:13.522Z,21.52
2019-03-11T04:30:42.084Z,21.50
2019-03-11T04:33:10.670Z,22.73
2019-03-11T04:35:39.249Z,22.00
2019-03-11T04:38:07.930Z,23.20
2019-03-11T04:40:36.463Z,22.50
2019-03-11T04:43:04.977Z,21.90
2019-03-11T04:45:33.578Z,23.12
2019-03-11T04:48:02.186Z,22.45
2019-03-11T04:50:30.817Z,22.70
2019-03-11T04:52:59.414Z,23.42
2019-03-11T04:55:27.890Z,23.55
2019-03-11T04:57:56.867Z,22.00
2019-03-11T05:00:30.543Z,21.80
2019-03-11T05:02:59.222Z,24.05
2019-03-11T05:05:27.748Z,21.85
2019-03-11T05:07:56.376Z,21.42
2019-03-11T05:10:24.980Z,23.02
2019-03-11T05:12:53.578Z,23.12
2019-03-11T05:15:22.061Z,22.48
2019-03-11T05:17:50.580Z,23.55
2019-03-11T05:20:19.313Z,22.90
2019-03-11T05:22:48.012Z,22.05
2019-03-11T05:25:16.502Z,25.20
2019-03-11T05:27:45.072Z,23.57
2019-03-11T05:30:19.583Z,23.10
2019-03-11T05:32:48.171Z,24.10
2019-03-11T05:35:16.662Z,24.95
2019-03-11T05:37:45.286Z,24.98
2019-03-11T05:40:15.950Z,24.60
2019-03-11T05:42:44.506Z,24.15
2019-03-11T05:45:17.556Z,22.90
2019-03-11T05:47:46.098Z,24.12
2019-03-11T05:50:15.687Z,24.05
2019-03-11T05:52:44.263Z,24.77
2019-03-11T05:55:13.284Z,26.25
2019-03-11T05:57:41.986Z,25.25
2019-03-11T06:00:22.324Z,26.80
2019-03-11T06:02:51.014Z,26.40
2019-03-11T06:05:19.534Z,26.60
2019-03-11T06:07:48.227Z,27.13
2019-03-11T06:10:17.242Z,26.97
2019-03-11T06:12:45.852Z,26.40
2019-03-11T06:15:15.113Z,24.92
2019-03-11T06:17:43.737Z,26.90
2019-03-11T06:20:17.272Z,27.87
2019-03-11T06:22:45.876Z,26.20
2019-03-11T06:25:14.427Z,27.27
2019-03-11T06:27:43.107Z,27.82
2019-03-11T06:30:12.064Z,27.42
2019-03-11T06:32:40.702Z,26.17
2019-03-11T06:35:09.197Z,27.60
2019-03-11T06:37:37.813Z,27.90
2019-03-11T06:40:10.918Z,27.52
2019-03-11T06:42:39.528Z,27.80
2019-03-11T06:45:10.493Z,27.13
2019-03-11T06:47:39.198Z,29.30
2019-03-11T06:50:09.959Z,27.87
2019-03-11T06:52:38.627Z,29.05
2019-03-11T06:55:08.782Z,28.55
2019-03-11T06:57:37.578Z,28.62
2019-03-11T07:00:17.122Z,27.85
2019-03-11T07:02:45.877Z,28.25
2019-03-11T07:05:19.841Z,27.48
2019-03-11T07:07:44.766Z,26.40
2019-03-11T07:10:14.761Z,25.88
2019-03-11T07:12:43.423Z,28.00
2019-03-11T07:15:13.443Z,27.40
2019-03-11T07:17:42.035Z,29.37
2019-03-11T07:20:16.411Z,28.95
2019-03-11T07:22:44.955Z,27.73
2019-03-11T07:25:13.583Z,28.30
2019-03-11T07:27:42.179Z,27.05
2019-03-11T07:30:16.852Z,26.52
2019-03-11T07:32:45.367Z,26.10
2019-03-11T07:35:13.987Z,27.77
2019-03-11T07:37:42.604Z,27.62
2019-03-11T07:40:15.402Z,28.38
2019-03-11T07:42:44.040Z,29.15
2019-03-11T07:45:14.626Z,28.55
2019-03-11T07:47:43.182Z,30.72
2019-03-11T07:50:12.579Z,29.98
2019-03-11T07:52:41.206Z,30.62
2019-03-11T07:55:10.974Z,30.35
2019-03-11T07:57:40.132Z,30.05
2019-03-11T08:00:19.629Z,31.70
2019-03-11T08:02:48.249Z,30.80
2019-03-11T08:05:16.948Z,32.35
2019-03-11T08:07:45.560Z,33.20
2019-03-11T08:10:20.162Z,32.45
2019-03-11T08:12:48.684Z,32.15
2019-03-11T08:15:17.259Z,32.03
2019-03-11T08:17:45.860Z,32.88
2019-03-11T08:20:15.054Z,31.95
2019-03-11T08:22:43.674Z,32.50
2019-03-11T08:25:14.229Z,33.88
2019-03-11T08:27:43.015Z,33.48
2019-03-11T08:30:21.653Z,33.05
2019-03-11T08:32:50.317Z,34.05
2019-03-11T08:35:18.842Z,32.98
2019-03-11T08:37:47.486Z,31.60
2019-03-11T08:40:19.604Z,33.73
2019-03-11T08:42:48.388Z,33.15
2019-03-11T08:45:18.057Z,34.75
2019-03-11T08:47:46.670Z,32.73
2019-03-11T08:50:16.197Z,32.17
2019-03-11T08:52:44.682Z,33.10
2019-03-11T08:55:13.531Z,33.90
2019-03-11T08:57:42.131Z,33.20
2019-03-11T09:00:13.936Z,32.78
2019-03-11T09:02:42.530Z,32.67
2019-03-11T09:05:11.967Z,32.55
2019-03-11T09:07:40.497Z,34.33
2019-03-11T09:10:16.340Z,32.33
2019-03-11T09:12:45.004Z,34.00
2019-03-11T09:15:22.833Z,33.67
2019-03-11T09:17:51.530Z,33.70
2019-03-11T09:20:20.161Z,32.35
2019-03-11T09:22:48.657Z,32.75
2019-03-11T09:25:22.430Z,32.75
2019-03-11T09:27:51.309Z,32.42
2019-03-11T09:30:21.036Z,31.62
2019-03-11T09:32:49.539Z,33.33
2019-03-11T09:35:18.320Z,33.45
2019-03-11T09:37:46.918Z,32.25
2019-03-11T09:40:17.655Z,33.20
2019-03-11T09:42:46.198Z,31.73
2019-03-11T09:45:19.249Z,32.60
2019-03-11T09:47:47.913Z,32.90
2019-03-11T09:50:17.023Z,33.83
2019-03-11T09:52:45.510Z,32.90
2019-03-11T09:55:24.405Z,31.93
2019-03-11T09:57:52.956Z,32.10
2019-03-11T10:00:23.917Z,33.48
2019-03-11T10:02:53.463Z,33.05
2019-03-11T10:05:22.590Z,32.17
2019-03-11T10:07:52.831Z,33.88
2019-03-11T10:10:23.904Z,32.48
2019-03-11T10:12:52.713Z,33.05
2019-03-11T10:15:22.152Z,32.38
2019-03-11T10:17:50.718Z,32.25
2019-03-11T10:20:20.007Z,32.95
2019-03-11T10:22:48.915Z,32.13
2019-03-11T10:25:18.425Z,32.73
2019-03-11T10:27:47.065Z,30.80
2019-03-11T10:30:22.790Z,31.25
2019-03-11T10:32:51.546Z,30.60
2019-03-11T10:35:31.557Z,31.42
2019-03-11T10:37:50.565Z,30.85
2019-03-11T10:40:32.211Z,28.75
2019-03-11T10:43:00.771Z,29.98
2019-03-11T10:45:31.578Z,30.10
2019-03-11T10:47:59.770Z,27.90
2019-03-11T10:50:28.428Z,27.80
2019-03-11T10:52:58.687Z,26.15
2019-03-11T10:55:27.934Z,28.02
2019-03-11T10:57:56.536Z,23.45
2019-03-11T11:00:33.727Z,22.95
2019-03-11T11:03:02.420Z,25.08
2019-03-11T11:05:31.106Z,23.00
2019-03-11T11:07:59.772Z,22.98
2019-03-11T11:10:28.426Z,19.50
2019-03-11T11:12:57.093Z,18.73
2019-03-11T11:15:27.645Z,19.73
2019-03-11T11:17:59.579Z,18.00
2019-03-11T11:20:28.095Z,17.77
2019-03-11T11:22:56.681Z,18.67
2019-03-11T11:25:27.209Z,15.75
2019-03-11T11:27:55.822Z,14.00
2019-03-11T11:30:25.407Z,14.43
2019-03-11T11:32:54.077Z,16.50
2019-03-11T11:35:22.796Z,14.70
2019-03-11T11:37:51.502Z,15.50
2019-03-11T11:40:22.598Z,15.55
2019-03-11T11:42:51.323Z,17.42
2019-03-11T11:45:21.529Z,20.30
2019-03-11T11:47:50.149Z,20.85
2019-03-11T11:50:21.126Z,20.77
2019-03-11T11:52:49.951Z,21.48
2019-03-11T11:55:19.712Z,21.30
2019-03-11T11:57:48.438Z,20.48
2019-03-11T12:00:26.988Z,21.75
2019-03-11T12:02:55.616Z,22.02
2019-03-11T12:05:24.343Z,20.48
2019-03-11T12:07:52.918Z,20.27
2019-03-11T12:10:24.157Z,20.90
2019-03-11T12:12:52.793Z,14.50
2019-03-11T12:15:21.413Z,14.60
2019-03-11T12:17:49.980Z,12.30
2019-03-11T12:20:27.641Z,14.98
2019-03-11T12:22:56.257Z,15.78
2019-03-11T12:25:24.901Z,14.70
2019-03-11T12:27:54.530Z,14.25
2019-03-11T12:30:31.547Z,13.10
2019-03-11T12:33:00.437Z,13.83
2019-03-11T12:35:29.014Z,13.03
2019-03-11T12:37:57.649Z,10.20
2019-03-11T12:40:26.334Z,10.23
2019-03-11T12:42:54.892Z,8.03
2019-03-11T12:45:24.871Z,6.22
2019-03-11T12:47:53.473Z,4.03
2019-03-11T12:50:32.958Z,3.65
2019-03-11T12:53:01.602Z,2.80
2019-03-11T12:55:30.227Z,2.72
2019-03-11T12:57:58.675Z,2.02
2019-03-11T13:00:27.317Z,4.33
2019-03-11T13:02:55.787Z,2.22
2019-03-11T13:05:24.422Z,2.40
2019-03-11T13:07:53.014Z,1.57
2019-03-11T13:10:25.292Z,1.77
2019-03-11T13:12:53.829Z,1.20
2019-03-11T13:15:22.532Z,0.78
2019-03-11T13:17:51.097Z,1.67
2019-03-11T13:20:31.825Z,1.87
2019-03-11T13:23:00.679Z,1.22
2019-03-11T13:25:29.214Z,25.05
2019-03-11T13:27:57.835Z,6.92
2019-03-11T13:30:27.164Z,7.65
2019-03-11T13:32:55.813Z,1.55
2019-03-11T13:35:24.741Z,3.58
2019-03-11T13:37:53.735Z,1.00
2019-03-11T13:40:22.302Z,1.00
2019-03-11T13:42:50.824Z,0.93
2019-03-11T13:45:26.918Z,0.65
2019-03-11T13:48:15.885Z,0.47
2019-03-11T13:50:59.294Z,0.37
2019-03-11T13:53:27.911Z,0.30
2019-03-11T13:55:57.515Z,0.40
2019-03-11T13:58:37.690Z,0.20
2019-03-11T14:01:07.132Z,0.30
2019-03-11T14:03:35.814Z,0.40
2019-03-11T14:06:04.439Z,1.15
2019-03-11T14:08:32.998Z,0.30
2019-03-11T14:11:01.565Z,0.20
2019-03-11T14:13:34.446Z,0.10
2019-03-11T14:16:03.082Z,0.20
2019-03-11T14:18:31.637Z,0.20
2019-03-11T14:21:02.997Z,0.23
2019-03-11T14:23:31.560Z,0.20
2019-03-11T14:26:00.596Z,0.30
2019-03-11T14:28:29.404Z,0.13
2019-03-11T14:30:58.090Z,0.20
2019-03-11T14:33:26.771Z,0.20
2019-03-11T14:35:56.599Z,0.10
2019-03-11T14:38:26.050Z,0.13
2019-03-11T14:40:54.632Z,0.10
2019-03-11T14:43:23.312Z,0.20
2019-03-11T14:45:52.003Z,0.40
2019-03-11T14:48:21.514Z,0.17
2019-03-11T14:50:50.021Z,0.20
2019-03-11T14:53:18.775Z,0.20
2019-03-11T14:55:47.426Z,0.10
2019-03-11T14:58:15.871Z,0.30
2019-03-11T15:00:44.445Z,0.20
2019-03-11T15:03:13.028Z,0.17
2019-03-11T15:05:41.608Z,0.30
2019-03-11T15:08:12.555Z,0.25
2019-03-11T15:10:40.574Z,0.40
2019-03-11T15:13:09.270Z,0.17
2019-03-11T15:15:37.952Z,0.30
2019-03-11T15:18:06.567Z,0.30
2019-03-11T15:20:35.199Z,0.35
2019-03-11T15:23:10.825Z,0.30
2019-03-11T15:25:34.268Z,0.30
2019-03-11T15:28:02.973Z,0.10
2019-03-11T15:30:31.505Z,0.40
2019-03-11T15:33:00.231Z,0.30
2019-03-11T15:35:28.759Z,0.30
2019-03-11T15:37:57.303Z,0.20
2019-03-11T15:40:25.982Z,0.20
2019-03-11T15:42:54.630Z,0.20
2019-03-11T15:45:23.220Z,0.30
2019-03-11T15:47:51.873Z,0.30
2019-03-11T15:50:35.069Z,0.30
2019-03-11T15:53:03.781Z,0.13
2019-03-11T15:55:32.394Z,0.20
2019-03-11T15:58:00.994Z,0.30
2019-03-11T16:00:29.837Z,0.30
2019-03-11T16:02:58.231Z,0.30
2019-03-11T16:05:27.211Z,0.10
2019-03-11T16:07:55.747Z,0.37
2019-03-11T16:10:24.686Z,0.20
2019-03-11T16:12:53.181Z,0.50
2019-03-11T16:15:21.745Z,0.65
2019-03-11T16:17:50.302Z,0.30
2019-03-11T16:20:23.321Z,0.10
2019-03-11T16:22:52.022Z,0.40
2019-03-11T16:25:20.656Z,0.70
2019-03-11T16:27:49.355Z,0.30
2019-03-11T16:30:20.513Z,0.60
2019-03-11T16:32:58.365Z,0.80
2019-03-11T16:35:20.414Z,1.40
2019-03-11T16:37:48.961Z,0.40
2019-03-11T16:40:17.574Z,0.28
2019-03-11T16:42:46.224Z,0.60
2019-03-11T16:45:17.283Z,0.93
2019-03-11T16:47:46.584Z,0.40
2019-03-11T16:50:25.699Z,0.50
2019-03-11T16:52:54.287Z,0.30
2019-03-11T16:55:40.420Z,0.50
2019-03-11T16:58:09.079Z,0.20
2019-03-11T17:00:39.249Z,0.68
2019-03-11T17:03:07.704Z,0.10
2019-03-11T17:05:36.329Z,0.53
2019-03-11T17:08:04.940Z,0.40
2019-03-11T17:10:33.448Z,0.20
2019-03-11T17:13:02.136Z,0.30
2019-03-11T17:15:33.251Z,0.20
2019-03-11T17:18:01.797Z,0.80
2019-03-11T17:20:30.359Z,0.45
2019-03-11T17:22:58.978Z,0.15
2019-03-11T17:25:27.494Z,0.23
2019-03-11T17:27:56.162Z,0.17
2019-03-11T17:30:27.788Z,0.20
2019-03-11T17:32:56.736Z,0.10
2019-03-11T17:35:25.422Z,0.37
2019-03-11T17:37:54.010Z,0.10
2019-03-11T17:40:23.694Z,0.20
2019-03-11T17:42:52.231Z,0.25
2019-03-11T17:45:21.549Z,0.10
2019-03-11T17:47:50.593Z,0.15
2019-03-11T17:50:22.946Z,0.50
2019-03-11T17:52:51.624Z,0.30
2019-03-11T17:55:20.674Z,0.95
2019-03-11T17:57:49.343Z,0.30
2019-03-11T18:00:36.033Z,0.10
2019-03-11T18:03:04.761Z,0.10
2019-03-11T18:05:35.053Z,0.20
2019-03-11T18:08:04.412Z,0.20
2019-03-11T18:10:34.424Z,0.20
2019-03-11T18:13:02.960Z,0.88
2019-03-11T18:15:34.926Z,0.30
2019-03-11T18:18:05.285Z,1.12
2019-03-11T18:20:33.813Z,0.10
2019-03-11T18:23:02.380Z,0.13
2019-03-11T18:25:31.929Z,0.40
2019-03-11T18:28:00.512Z,0.20
2019-03-11T18:30:30.302Z,0.20
2019-03-11T18:32:58.771Z,0.30
2019-03-11T18:35:27.380Z,0.10
2019-03-11T18:38:04.115Z,0.20
2019-03-11T18:40:26.124Z,0.20
2019-03-11T18:42:54.695Z,0.30
2019-03-11T18:45:23.193Z,0.10
2019-03-11T18:47:51.858Z,0.23
2019-03-11T18:50:26.575Z,0.15
2019-03-11T18:52:55.182Z,0.20
2019-03-11T18:55:23.775Z,0.10
2019-03-11T18:57:56.874Z,0.20
2019-03-11T19:00:25.729Z,0.72
2019-03-11T19:02:55.758Z,0.35
2019-03-11T19:05:31.381Z,0.30
2019-03-11T19:08:00.527Z,0.50
2019-03-11T19:10:29.266Z,0.60
2019-03-11T19:12:57.948Z,0.20
2019-03-11T19:15:26.697Z,0.40
2019-03-11T19:17:55.462Z,0.20
2019-03-11T19:20:24.992Z,0.47
2019-03-11T19:22:53.665Z,0.80
2019-03-11T19:25:22.284Z,0.30
2019-03-11T19:27:50.782Z,0.20
2019-03-11T19:30:24.584Z,0.35
2019-03-11T19:32:53.131Z,0.30
2019-03-11T19:35:21.740Z,0.30
2019-03-11T19:37:50.246Z,0.78
2019-03-11T19:40:23.975Z,2.10
2019-03-11T19:42:52.619Z,0.20
2019-03-11T19:45:21.199Z,0.88
2019-03-11T19:47:49.886Z,2.40
2019-03-11T19:50:19.195Z,1.40
2019-03-11T19:52:57.731Z,1.50
2019-03-11T19:55:18.002Z,1.00
2019-03-11T19:57:46.776Z,0.50
2019-03-11T20:00:20.436Z,1.67
2019-03-11T20:02:49.187Z,0.60
2019-03-11T20:05:23.646Z,2.27
2019-03-11T20:07:52.172Z,2.30
2019-03-11T20:10:20.817Z,4.47
2019-03-11T20:12:49.383Z,3.77
2019-03-11T20:15:17.897Z,0.90
2019-03-11T20:17:46.968Z,0.40
2019-03-11T20:20:19.363Z,0.40
2019-03-11T20:22:50.214Z,0.10
2019-03-11T20:25:22.012Z,1.50
2019-03-11T20:27:50.756Z,1.82
2019-03-11T20:30:21.482Z,2.17
2019-03-11T20:32:50.184Z,6.10
2019-03-11T20:35:18.682Z,2.77
2019-03-11T20:37:47.324Z,9.55
2019-03-11T20:40:15.865Z,0.65
2019-03-11T20:42:44.378Z,0.95
2019-03-11T20:45:18.595Z,0.60
2019-03-11T20:47:47.451Z,0.40
2019-03-11T20:50:21.842Z,0.20
2019-03-11T20:52:50.590Z,0.30
2019-03-11T20:55:20.161Z,0.98
2019-03-11T20:57:48.887Z,1.05
2019-03-11T21:00:22.057Z,0.35
2019-03-11T21:02:50.759Z,0.70
2019-03-11T21:05:25.607Z,0.23
2019-03-11T21:07:54.312Z,0.15
2019-03-11T21:10:23.022Z,0.20
2019-03-11T21:12:51.773Z,0.40
2019-03-11T21:15:20.295Z,0.30
2019-03-11T21:17:48.978Z,0.33
2019-03-11T21:20:18.080Z,0.20
2019-03-11T21:22:46.719Z,0.20
2019-03-11T21:25:17.744Z,0.33
2019-03-11T21:27:46.410Z,0.10
2019-03-11T21:30:19.612Z,0.20
2019-03-11T21:32:48.288Z,0.15
2019-03-11T21:35:16.976Z,0.40
2019-03-11T21:37:45.736Z,0.10
2019-03-11T21:40:17.041Z,0.20
2019-03-11T21:42:45.757Z,0.30
2019-03-11T21:45:15.357Z,0.20
2019-03-11T21:47:43.899Z,0.30
2019-03-11T21:50:29.248Z,0.30
2019-03-11T21:52:57.991Z,0.50
2019-03-11T21:55:26.690Z,0.68
2019-03-11T21:57:55.296Z,0.30
2019-03-11T22:00:34.062Z,0.20
2019-03-11T22:02:54.768Z,0.25
2019-03-11T22:05:23.453Z,0.20
2019-03-11T22:07:52.699Z,0.20
2019-03-11T22:10:22.116Z,0.33
2019-03-11T22:12:52.511Z,0.30
2019-03-11T22:15:25.698Z,4.10
2019-03-11T22:17:54.631Z,0.30
2019-03-11T22:20:24.209Z,0.20
2019-03-11T22:22:53.729Z,0.10
2019-03-11T22:25:23.366Z,0.25
2019-03-11T22:27:52.464Z,0.30
2019-03-11T22:30:28.177Z,0.20
2019-03-11T22:32:59.658Z,12.50
2019-03-11T22:35:29.214Z,0.20
2019-03-11T22:37:57.969Z,0.30
2019-03-11T22:40:26.538Z,0.17
2019-03-11T22:42:55.239Z,0.20
2019-03-11T22:45:23.994Z,0.23
2019-03-11T22:47:52.580Z,0.20
2019-03-11T22:50:21.536Z,4.30
2019-03-11T22:52:50.202Z,0.82
2019-03-11T22:55:19.270Z,0.20
2019-03-11T22:57:47.981Z,0.40
2019-03-11T23:00:23.279Z,0.50
2019-03-11T23:02:51.947Z,0.20
2019-03-11T23:05:20.544Z,0.20
2019-03-11T23:07:49.138Z,0.30
2019-03-11T23:10:17.881Z,0.13
2019-03-11T23:12:46.682Z,0.30
2019-03-11T23:15:16.047Z,0.20
2019-03-11T23:17:45.341Z,0.20
2019-03-11T23:20:16.529Z,0.20
2019-03-11T23:22:45.163Z,0.17
2019-03-11T23:25:13.687Z,0.35
2019-03-11T23:27:42.295Z,0.28
2019-03-11T23:30:12.933Z,0.10
2019-03-11T23:32:44.372Z,0.25
2019-03-11T23:35:13.056Z,0.20
2019-03-11T23:38:02.713Z,0.30
2019-03-11T23:40:31.434Z,0.30
2019-03-11T23:42:59.967Z,0.20
2019-03-11T23:45:28.480Z,0.25
2019-03-11T23:47:57.204Z,0.10
2019-03-11T23:50:25.820Z,0.10
2019-03-11T23:53:01.788Z,0.10
2019-03-11T23:55:30.456Z,0.25
2019-03-11T23:57:59.116Z,0.10
